Terminal Aerodrome Forecast
Issued by NWS Greer, SC

Home | Current Version | Previous Version | Text Only | Print | Product List | Glossary On
Versions: 1 2 3 4 5 6 7 8 9 10 11 12 13 14 15 16 17 18 19 20 21
000
FTUS42 KGSP 040158 AAB
TAFGSP
TAF AMD
KGSP 040158Z 0402/0424 19004KT 2SM BR OVC002
     FM041100 21005KT 1/2SM FG OVC002 WS020/24035KT
     FM041500 21010KT 1SM BR OVC002
     FM041600 22013G21KT 3SM BR BKN010
     FM042000 22014KT P6SM BKN018=

USA.gov is the U.S. government's official web portal to all federal, state and local government web resources and services.